Time;durP1;ratioP1;P1;durP2;ratioP2;P2;SDS_P1;SDS_P2;PMS_P1;PMS_P2;Temp;Humidity;BMP_temperature;BMP_pressure;BME280_temperature;BME280_humidity;BME280_pressure;Samples;Min_cycle;Max_cycle;Signal;HPM_P1;HPM_P2
2024/02/29 05:07:28;;;;;;;0.70;0.70;;;0.80;99.90;;;;;;5070386;23;20283;-61
2024/02/29 05:09:54;;;;;;;0.50;0.50;;;0.80;99.90;;;;;;4974810;28;20187;-60
2024/02/29 05:12:22;;;;;;;0.50;0.50;;;0.80;99.90;;;;;;4974989;28;20212;-60
2024/02/29 05:14:48;;;;;;;0.52;0.52;;;0.80;99.90;;;;;;4974646;28;20183;-61
2024/02/29 05:17:14;;;;;;;0.50;0.50;;;0.80;99.90;;;;;;4958147;28;20663;-61
2024/02/29 05:19:39;;;;;;;0.50;0.50;;;0.70;99.90;;;;;;4955438;29;20251;-60
2024/02/29 05:22:05;;;;;;;0.40;0.40;;;0.70;99.90;;;;;;4955558;29;20264;-61
2024/02/29 05:24:31;;;;;;;0.43;0.43;;;0.70;99.90;;;;;;4955161;29;20177;-61
2024/02/29 05:26:56;;;;;;;0.50;0.50;;;0.70;99.90;;;;;;4955403;28;20436;-60
2024/02/29 05:29:22;;;;;;;0.40;0.40;;;0.70;99.90;;;;;;4955311;29;20175;-60
2024/02/29 05:31:54;;;;;;;0.60;0.60;;;0.70;99.90;;;;;;4955428;29;20176;-60
2024/02/29 05:34:23;;;;;;;0.52;0.52;;;0.70;99.90;;;;;;4954690;29;20169;-61
2024/02/29 05:36:49;;;;;;;0.40;0.40;;;0.70;99.90;;;;;;4953636;28;20283;-60
2024/02/29 05:39:15;;;;;;;0.43;0.43;;;0.70;99.90;;;;;;4955004;29;20224;-60
2024/02/29 05:41:40;;;;;;;0.50;0.50;;;0.70;99.90;;;;;;4955001;29;20215;-60
2024/02/29 05:44:08;;;;;;;0.47;0.47;;;0.70;99.90;;;;;;4955135;29;20185;-59
2024/02/29 05:46:34;;;;;;;0.40;0.40;;;0.70;99.90;;;;;;4954522;28;20247;-59
2024/02/29 05:49:00;;;;;;;0.40;0.40;;;0.70;99.90;;;;;;4955104;29;20184;-60
2024/02/29 05:51:26;;;;;;;0.40;0.40;;;0.70;99.90;;;;;;4954785;29;20512;-60
2024/02/29 05:53:52;;;;;;;0.40;0.40;;;0.70;99.90;;;;;;4955490;29;20211;-60
2024/02/29 05:56:17;;;;;;;0.40;0.40;;;0.70;99.90;;;;;;4954752;28;20196;-60
2024/02/29 05:58:43;;;;;;;0.30;0.30;;;0.70;99.90;;;;;;4954968;29;20405;-60
2024/02/29 06:01:10;;;;;;;0.50;0.50;;;0.70;99.90;;;;;;4955008;29;20626;-60
2024/02/29 06:03:39;;;;;;;0.43;0.43;;;0.70;99.90;;;;;;4954765;29;20183;-60
2024/02/29 06:06:05;;;;;;;0.50;0.50;;;0.60;99.90;;;;;;4954452;28;20247;-60
2024/02/29 06:08:30;;;;;;;0.55;0.55;;;0.70;99.90;;;;;;4954797;28;20204;-60
2024/02/29 06:10:56;;;;;;;0.40;0.40;;;0.70;99.90;;;;;;4954170;29;20183;-59
2024/02/29 06:13:22;;;;;;;0.40;0.40;;;0.70;99.90;;;;;;4964575;28;20235;-58
2024/02/29 06:15:47;;;;;;;0.40;0.40;;;0.70;99.90;;;;;;4955562;28;20564;-58
2024/02/29 06:18:13;;;;;;;0.50;0.50;;;0.70;99.90;;;;;;4954810;29;20172;-59
2024/02/29 06:20:39;;;;;;;0.30;0.30;;;0.70;99.90;;;;;;4954760;28;20177;-59
2024/02/29 06:23:05;;;;;;;0.40;0.40;;;0.70;99.90;;;;;;4972905;28;20199;-59
2024/02/29 06:25:31;;;;;;;0.40;0.40;;;0.80;99.90;;;;;;4956448;28;20278;-60
2024/02/29 06:27:57;;;;;;;0.40;0.40;;;0.80;99.90;;;;;;4974044;28;20270;-59
2024/02/29 06:30:31;;;;;;;0.50;0.50;;;0.80;99.90;;;;;;4968800;28;20644;-60
2024/02/29 06:32:57;;;;;;;0.30;0.30;;;0.90;99.90;;;;;;4935180;29;20516;-59
2024/02/29 06:35:23;;;;;;;0.40;0.40;;;0.90;99.90;;;;;;4934972;29;20209;-61
2024/02/29 06:37:48;;;;;;;0.40;0.40;;;1.00;99.90;;;;;;4924358;29;20169;-61
2024/02/29 06:40:14;;;;;;;0.40;0.40;;;1.10;99.90;;;;;;4954339;29;20519;-62
2024/02/29 06:42:40;;;;;;;0.50;0.50;;;1.20;99.90;;;;;;4954496;29;20215;-61
2024/02/29 06:45:07;;;;;;;0.40;0.40;;;1.30;99.90;;;;;;4959201;28;20188;-61
2024/02/29 06:47:33;;;;;;;0.32;0.32;;;1.40;99.90;;;;;;4954134;28;20211;-61
2024/02/29 06:50:00;;;;;;;0.40;0.40;;;1.50;99.90;;;;;;4954546;28;20185;-62
2024/02/29 06:52:26;;;;;;;0.50;0.50;;;1.60;99.90;;;;;;4954173;28;20551;-62
2024/02/29 06:54:52;;;;;;;0.40;0.40;;;1.70;99.90;;;;;;4953559;28;20189;-62
2024/02/29 06:57:18;;;;;;;0.63;0.63;;;1.80;99.90;;;;;;4936985;29;20596;-61
2024/02/29 06:59:43;;;;;;;0.40;0.40;;;1.90;99.90;;;;;;4954090;29;20534;-61
2024/02/29 07:02:09;;;;;;;0.40;0.40;;;2.00;99.90;;;;;;4954238;29;20204;-61
2024/02/29 07:04:34;;;;;;;0.50;0.50;;;2.10;99.90;;;;;;4953518;29;20343;-61
2024/02/29 07:07:00;;;;;;;0.60;0.60;;;2.20;99.90;;;;;;4953949;28;20209;-61
2024/02/29 07:09:25;;;;;;;0.33;0.33;;;2.30;99.90;;;;;;4953949;29;20686;-61
2024/02/29 07:11:51;;;;;;;0.37;0.37;;;2.50;99.90;;;;;;4954075;28;20450;-61
2024/02/29 07:14:17;;;;;;;0.40;0.40;;;2.80;99.90;;;;;;4954242;28;20304;-62
2024/02/29 07:16:43;;;;;;;0.30;0.30;;;3.20;99.90;;;;;;4953184;28;20289;-63
2024/02/29 07:19:09;;;;;;;0.60;0.60;;;3.80;99.90;;;;;;4953369;28;20188;-59
2024/02/29 07:21:35;;;;;;;0.50;0.50;;;4.10;99.90;;;;;;4953883;28;20412;-59
2024/02/29 07:24:02;;;;;;;0.30;0.30;;;4.50;99.90;;;;;;4958176;28;20422;-60
2024/02/29 07:26:28;;;;;;;0.40;0.40;;;4.70;99.90;;;;;;4956805;28;20284;-61
2024/02/29 07:28:53;;;;;;;1.53;1.43;;;4.80;99.90;;;;;;4973035;28;20615;-62
2024/02/29 07:31:19;;;;;;;0.37;0.37;;;4.70;99.90;;;;;;4963898;28;20188;-62
2024/02/29 07:33:46;;;;;;;0.40;0.40;;;4.80;99.90;;;;;;4940045;29;20212;-62
2024/02/29 07:36:12;;;;;;;0.40;0.40;;;5.10;99.90;;;;;;4956573;28;20204;-62
2024/02/29 07:38:38;;;;;;;0.40;0.40;;;5.40;99.90;;;;;;4957227;28;20259;-62
2024/02/29 07:41:04;;;;;;;0.30;0.30;;;5.80;99.90;;;;;;4956570;28;20267;-62
2024/02/29 07:43:29;;;;;;;0.47;0.47;;;6.10;99.90;;;;;;4957193;28;20184;-60
2024/02/29 07:45:55;;;;;;;0.30;0.30;;;6.30;99.90;;;;;;4956454;29;20586;-61
2024/02/29 07:48:20;;;;;;;0.30;0.30;;;6.60;99.90;;;;;;4942805;29;20204;-62
2024/02/29 07:50:46;;;;;;;0.30;0.30;;;6.90;99.90;;;;;;4956541;28;20192;-61
2024/02/29 07:53:12;;;;;;;0.30;0.30;;;7.10;99.90;;;;;;4955947;29;20767;-62
2024/02/29 07:55:37;;;;;;;1.17;0.93;;;7.40;99.90;;;;;;4955732;28;20197;-61
2024/02/29 07:58:05;;;;;;;0.40;0.40;;;7.80;99.90;;;;;;4956317;29;20233;-61
2024/02/29 08:00:30;;;;;;;0.60;0.60;;;8.10;99.90;;;;;;4955406;28;20180;-61
2024/02/29 08:02:56;;;;;;;0.30;0.30;;;8.50;99.90;;;;;;4956978;29;20390;-60
2024/02/29 08:05:22;;;;;;;0.50;0.50;;;9.10;99.90;;;;;;4939173;29;20272;-61
2024/02/29 08:07:48;;;;;;;0.40;0.40;;;9.80;99.90;;;;;;4956045;29;20208;-61
2024/02/29 08:10:15;;;;;;;0.37;0.37;;;10.50;99.90;;;;;;4955745;28;20237;-61
2024/02/29 08:12:44;;;;;;;0.30;0.30;;;10.80;99.90;;;;;;4956088;28;20539;-62
2024/02/29 08:15:10;;;;;;;0.53;0.53;;;11.30;99.90;;;;;;4955924;28;20409;-61
2024/02/29 08:17:36;;;;;;;0.60;0.60;;;11.90;99.90;;;;;;4956341;29;20408;-61
2024/02/29 08:20:03;;;;;;;0.50;0.50;;;12.40;99.90;;;;;;4956234;28;20459;-61
2024/02/29 08:22:28;;;;;;;0.67;0.67;;;12.80;99.90;;;;;;4956320;29;20169;-61
2024/02/29 08:24:54;;;;;;;0.30;0.30;;;13.40;99.50;;;;;;4955729;28;20405;-61
2024/02/29 08:27:20;;;;;;;0.40;0.37;;;13.80;99.60;;;;;;4956104;28;20193;-61
2024/02/29 08:29:45;;;;;;;0.50;0.50;;;14.40;98.00;;;;;;4954094;28;20188;-61
2024/02/29 08:32:11;;;;;;;2.00;0.97;;;14.70;96.60;;;;;;4954111;28;20177;-61
2024/02/29 08:34:36;;;;;;;1.13;0.77;;;15.10;95.20;;;;;;4953244;28;20256;-61
2024/02/29 08:37:02;;;;;;;0.30;0.30;;;15.30;94.80;;;;;;4954422;28;20185;-61
2024/02/29 08:39:28;;;;;;;0.50;0.50;;;15.50;94.20;;;;;;4954472;28;20627;-62
2024/02/29 08:41:53;;;;;;;1.33;1.23;;;15.70;93.80;;;;;;4954224;28;20177;-61
2024/02/29 08:44:19;;;;;;;0.40;0.40;;;15.80;93.40;;;;;;4954677;28;20169;-62
2024/02/29 08:46:44;;;;;;;0.70;0.50;;;16.00;93.90;;;;;;4955978;28;20317;-61
2024/02/29 08:49:10;;;;;;;0.30;0.30;;;16.60;93.50;;;;;;4956093;28;20177;-61
2024/02/29 08:51:36;;;;;;;0.30;0.30;;;17.20;92.60;;;;;;4956182;28;20272;-61
2024/02/29 08:54:02;;;;;;;0.40;0.40;;;17.80;91.60;;;;;;4955745;28;20248;-61
2024/02/29 08:56:28;;;;;;;0.70;0.40;;;18.40;89.80;;;;;;4955588;28;20540;-61
2024/02/29 08:58:54;;;;;;;0.50;0.50;;;18.50;87.70;;;;;;4955937;28;20953;-61
2024/02/29 09:01:20;;;;;;;0.73;0.40;;;18.30;87.60;;;;;;4955530;28;20955;-61
2024/02/29 09:03:45;;;;;;;0.40;0.40;;;18.20;87.50;;;;;;4955624;28;20397;-61
2024/02/29 09:06:13;;;;;;;0.30;0.30;;;17.80;89.00;;;;;;4955375;28;20207;-61
2024/02/29 09:08:39;;;;;;;1.23;0.77;;;17.60;89.20;;;;;;4955641;28;20189;-61
2024/02/29 09:11:04;;;;;;;1.00;1.00;;;17.50;89.60;;;;;;4955822;28;20804;-61
2024/02/29 09:13:30;;;;;;;0.30;0.30;;;17.60;90.10;;;;;;4955609;28;20215;-61
2024/02/29 09:15:57;;;;;;;0.40;0.40;;;17.90;89.30;;;;;;4955284;28;20227;-61
2024/02/29 09:18:23;;;;;;;1.00;0.90;;;18.00;88.40;;;;;;4955525;28;20394;-61
2024/02/29 09:20:49;;;;;;;0.50;0.50;;;18.30;89.30;;;;;;4955517;28;20483;-61
2024/02/29 09:23:15;;;;;;;0.30;0.20;;;18.40;88.30;;;;;;4955581;28;20180;-61
2024/02/29 09:25:41;;;;;;;1.90;1.23;;;18.50;88.30;;;;;;4955054;28;20415;-61
2024/02/29 09:28:07;;;;;;;0.50;0.50;;;18.60;86.80;;;;;;4955381;28;20189;-61
2024/02/29 09:30:33;;;;;;;0.40;0.40;;;18.70;87.90;;;;;;4955254;28;20515;-61
2024/02/29 09:32:59;;;;;;;0.60;0.60;;;19.10;86.20;;;;;;4955157;28;20263;-61
2024/02/29 09:35:25;;;;;;;0.73;0.73;;;19.40;84.90;;;;;;4954811;28;20416;-61
2024/02/29 09:37:50;;;;;;;0.57;0.57;;;19.30;84.60;;;;;;4955321;28;20492;-61
2024/02/29 09:40:20;;;;;;;0.30;0.30;;;19.00;85.00;;;;;;4955285;28;20413;-61
2024/02/29 09:42:46;;;;;;;0.80;0.80;;;18.90;85.00;;;;;;4955153;28;20648;-60
2024/02/29 09:45:13;;;;;;;3.30;2.97;;;18.80;85.30;;;;;;4954127;28;20490;-61
2024/02/29 09:47:40;;;;;;;0.57;0.30;;;18.70;85.70;;;;;;4954747;28;20391;-60
2024/02/29 09:50:08;;;;;;;0.70;0.50;;;18.80;85.80;;;;;;4955009;28;20483;-60
2024/02/29 09:52:40;;;;;;;0.70;0.70;;;18.90;85.80;;;;;;4955031;28;20838;-61
2024/02/29 09:55:15;;;;;;;0.60;0.43;;;19.10;85.00;;;;;;4954624;28;20490;-62
2024/02/29 09:57:41;;;;;;;0.57;0.57;;;19.40;85.30;;;;;;4953566;29;20420;-61
2024/02/29 10:00:11;;;;;;;0.37;0.37;;;19.50;84.20;;;;;;4954853;28;20406;-65
2024/02/29 10:02:42;;;;;;;0.40;0.40;;;19.50;84.50;;;;;;4954859;29;20402;-62
2024/02/29 10:05:11;;;;;;;0.30;0.30;;;19.50;84.00;;;;;;4954386;28;20412;-61
2024/02/29 10:07:47;;;;;;;0.40;0.40;;;19.20;83.80;;;;;;4954757;28;20464;-62
2024/02/29 10:10:14;;;;;;;1.23;1.10;;;19.00;85.00;;;;;;4954591;28;20793;-62
2024/02/29 10:12:40;;;;;;;0.60;0.53;;;18.80;84.70;;;;;;4954768;28;20456;-61
2024/02/29 10:15:10;;;;;;;0.50;0.50;;;18.60;85.50;;;;;;4954378;28;20420;-61
2024/02/29 10:17:37;;;;;;;0.83;0.83;;;18.60;86.10;;;;;;4954610;28;20444;-61
2024/02/29 10:20:10;;;;;;;0.40;0.40;;;18.70;86.50;;;;;;4954746;28;20848;-61
2024/02/29 10:22:37;;;;;;;0.40;0.30;;;18.70;86.20;;;;;;4954573;28;20401;-61
2024/02/29 10:25:08;;;;;;;0.57;0.57;;;18.90;86.00;;;;;;4954386;28;20419;-61
2024/02/29 10:27:34;;;;;;;0.77;0.50;;;19.10;85.10;;;;;;4954825;28;20440;-61
2024/02/29 10:29:59;;;;;;;0.90;0.77;;;19.40;85.30;;;;;;4954776;28;20391;-61
2024/02/29 10:32:25;;;;;;;0.40;0.40;;;19.60;82.90;;;;;;4954249;28;20204;-60
2024/02/29 10:34:50;;;;;;;0.53;0.53;;;19.70;83.30;;;;;;4954298;28;20180;-60
2024/02/29 10:37:16;;;;;;;0.50;0.50;;;19.70;83.30;;;;;;4954427;28;20200;-60
2024/02/29 10:39:42;;;;;;;0.40;0.40;;;19.60;83.30;;;;;;4954308;28;20200;-61
2024/02/29 10:42:09;;;;;;;0.50;0.50;;;19.80;82.70;;;;;;4954528;28;20299;-61
2024/02/29 10:44:38;;;;;;;1.43;1.43;;;20.00;81.80;;;;;;4954198;28;20382;-61
2024/02/29 10:47:07;;;;;;;0.87;0.60;;;20.00;81.90;;;;;;4954210;28;20402;-61
2024/02/29 10:49:38;;;;;;;0.40;0.40;;;19.80;83.10;;;;;;4954270;28;20509;-61
2024/02/29 10:52:12;;;;;;;1.40;0.60;;;19.70;82.40;;;;;;4954439;28;20768;-61
2024/02/29 10:54:42;;;;;;;0.30;0.20;;;19.70;81.90;;;;;;4952510;29;20439;-61
2024/02/29 10:57:22;;;;;;;0.80;0.80;;;19.80;82.00;;;;;;4955221;28;20487;-61
2024/02/29 10:59:58;;;;;;;0.30;0.30;;;19.70;83.10;;;;;;4956358;28;20778;-61
2024/02/29 11:02:24;;;;;;;2.03;1.20;;;19.80;83.90;;;;;;4957835;28;20496;-61
2024/02/29 11:04:51;;;;;;;0.37;0.37;;;20.00;84.40;;;;;;4956685;29;20769;-61
2024/02/29 11:07:17;;;;;;;1.07;0.93;;;20.10;83.40;;;;;;4957609;28;20811;-61
2024/02/29 11:09:43;;;;;;;0.40;0.37;;;19.90;82.90;;;;;;4957647;29;20474;-62
2024/02/29 11:12:13;;;;;;;0.63;0.63;;;19.70;83.90;;;;;;4957696;28;20411;-61
2024/02/29 11:14:43;;;;;;;0.50;0.40;;;19.70;84.30;;;;;;4957184;28;20171;-61
2024/02/29 11:17:08;;;;;;;0.33;0.33;;;19.50;83.60;;;;;;4957518;28;20405;-60
2024/02/29 11:19:34;;;;;;;0.30;0.20;;;19.20;83.80;;;;;;4957742;28;20473;-60
2024/02/29 11:22:10;;;;;;;0.30;0.30;;;19.10;84.90;;;;;;4957344;28;20691;-60
2024/02/29 11:24:40;;;;;;;0.90;0.90;;;19.10;84.20;;;;;;4957277;28;20436;-60
2024/02/29 11:27:10;;;;;;;0.43;0.43;;;18.70;83.70;;;;;;4957335;28;20440;-60
2024/02/29 11:29:36;;;;;;;0.70;0.50;;;18.20;84.50;;;;;;4957349;28;20386;-60
2024/02/29 11:32:04;;;;;;;2.00;1.17;;;17.50;84.80;;;;;;4957197;28;20403;-60
2024/02/29 11:34:29;;;;;;;0.90;0.90;;;16.90;86.10;;;;;;4957033;28;20426;-61
2024/02/29 11:36:55;;;;;;;1.17;1.17;;;16.00;88.20;;;;;;4957034;28;20461;-60
2024/02/29 11:39:22;;;;;;;0.73;0.70;;;15.50;90.50;;;;;;4957205;28;20181;-60
2024/02/29 11:41:48;;;;;;;0.30;0.30;;;15.20;91.80;;;;;;4957473;28;20180;-61
2024/02/29 11:44:14;;;;;;;1.80;0.70;;;15.00;91.60;;;;;;4957405;28;20379;-61
2024/02/29 11:46:47;;;;;;;0.33;0.33;;;14.80;91.70;;;;;;4957105;28;20454;-60
2024/02/29 11:49:17;;;;;;;0.70;0.70;;;14.50;92.10;;;;;;4957223;28;20384;-61
2024/02/29 11:51:45;;;;;;;0.40;0.40;;;14.30;93.10;;;;;;4957147;28;20392;-61
2024/02/29 11:54:13;;;;;;;0.40;0.40;;;14.10;93.60;;;;;;4957164;29;20442;-61
2024/02/29 11:56:39;;;;;;;0.47;0.47;;;13.90;93.70;;;;;;4955257;28;20937;-61
2024/02/29 11:59:06;;;;;;;0.30;0.30;;;13.70;93.80;;;;;;4957183;28;20382;-61
2024/02/29 12:01:33;;;;;;;0.40;0.40;;;13.60;93.90;;;;;;4956740;28;20252;-61
2024/02/29 12:04:00;;;;;;;0.33;0.33;;;13.60;93.60;;;;;;4956920;28;20529;-60
2024/02/29 12:06:26;;;;;;;2.50;0.60;;;13.60;92.70;;;;;;4956142;28;20752;-60
2024/02/29 12:08:53;;;;;;;0.70;0.70;;;13.50;93.30;;;;;;4955314;28;20476;-60
2024/02/29 12:11:20;;;;;;;0.30;0.30;;;13.60;93.00;;;;;;4957356;28;20788;-60
2024/02/29 12:13:46;;;;;;;0.30;0.30;;;13.60;93.40;;;;;;4956641;28;20457;-60
2024/02/29 12:16:12;;;;;;;1.27;0.90;;;13.70;93.20;;;;;;4954985;28;20489;-60
2024/02/29 12:18:37;;;;;;;0.30;0.27;;;13.80;92.80;;;;;;4956680;28;20413;-61
2024/02/29 12:21:04;;;;;;;0.30;0.30;;;13.80;93.30;;;;;;4956767;28;20948;-61
2024/02/29 12:23:31;;;;;;;1.60;0.87;;;13.90;93.30;;;;;;4956535;29;20178;-61
2024/02/29 12:26:13;;;;;;;0.30;0.30;;;14.00;93.30;;;;;;4956066;28;20954;-61
2024/02/29 12:28:40;;;;;;;0.30;0.30;;;14.10;92.80;;;;;;4956618;28;20408;-61
2024/02/29 12:31:06;;;;;;;1.03;0.73;;;14.00;92.60;;;;;;4955300;29;20390;-61
2024/02/29 12:33:40;;;;;;;0.30;0.20;;;13.90;92.00;;;;;;4956095;28;20460;-61
2024/02/29 12:36:06;;;;;;;0.30;0.30;;;13.80;92.50;;;;;;4956056;28;20929;-62
2024/02/29 12:38:32;;;;;;;0.40;0.40;;;13.70;92.30;;;;;;4956485;28;20383;-60
2024/02/29 12:40:58;;;;;;;0.30;0.30;;;13.60;92.30;;;;;;4956078;28;20421;-61
2024/02/29 12:43:24;;;;;;;0.33;0.33;;;13.60;93.40;;;;;;4955659;28;20169;-62
2024/02/29 12:45:49;;;;;;;1.50;0.43;;;13.60;92.40;;;;;;4955327;28;20406;-62
2024/02/29 12:48:15;;;;;;;0.37;0.37;;;13.40;92.40;;;;;;4955795;28;20225;-61
2024/02/29 12:50:41;;;;;;;0.30;0.30;;;13.30;92.70;;;;;;4955843;28;20199;-61
2024/02/29 12:53:06;;;;;;;0.40;0.40;;;13.20;93.10;;;;;;4955740;28;20343;-61
2024/02/29 12:55:32;;;;;;;0.30;0.20;;;13.20;93.10;;;;;;4955370;28;20192;-60
2024/02/29 12:57:57;;;;;;;0.30;0.30;;;13.20;93.10;;;;;;4956175;28;20172;-62
2024/02/29 13:00:25;;;;;;;0.30;0.30;;;13.30;93.10;;;;;;4955778;28;20571;-61
2024/02/29 13:02:52;;;;;;;1.53;1.43;;;13.30;92.90;;;;;;4955643;28;20256;-61
2024/02/29 13:05:19;;;;;;;0.57;0.57;;;13.30;93.00;;;;;;4955500;28;20390;-60
2024/02/29 13:07:45;;;;;;;0.73;0.73;;;13.20;92.80;;;;;;4955966;28;20444;-61
2024/02/29 13:10:11;;;;;;;0.30;0.30;;;13.20;92.70;;;;;;4955521;29;20542;-60
2024/02/29 13:12:40;;;;;;;0.30;0.30;;;13.20;92.70;;;;;;4955495;28;20525;-61
2024/02/29 13:15:06;;;;;;;0.30;0.30;;;13.10;93.00;;;;;;4955006;28;20902;-60
2024/02/29 13:17:33;;;;;;;0.30;0.30;;;13.10;93.20;;;;;;4955539;28;20403;-60
2024/02/29 13:19:58;;;;;;;0.37;0.37;;;13.10;93.10;;;;;;4955246;28;20391;-60
2024/02/29 13:22:24;;;;;;;0.30;0.30;;;13.10;93.40;;;;;;4955603;28;20956;-61
2024/02/29 13:24:49;;;;;;;0.63;0.50;;;13.10;94.00;;;;;;4955133;28;20643;-61
2024/02/29 13:27:15;;;;;;;0.30;0.30;;;13.20;93.50;;;;;;4955428;28;20662;-61
2024/02/29 13:29:41;;;;;;;0.30;0.30;;;13.30;93.10;;;;;;4955383;28;20177;-62
2024/02/29 13:32:06;;;;;;;0.57;0.57;;;13.30;92.90;;;;;;4954752;28;20206;-61
2024/02/29 13:34:32;;;;;;;0.40;0.40;;;13.20;93.20;;;;;;4954518;29;20713;-61
2024/02/29 13:36:58;;;;;;;0.37;0.37;;;13.20;93.10;;;;;;4954624;28;20203;-61
2024/02/29 13:39:23;;;;;;;0.30;0.30;;;13.10;93.30;;;;;;4945005;29;20239;-61
2024/02/29 13:41:49;;;;;;;0.40;0.40;;;13.10;93.40;;;;;;4955066;28;20251;-61
2024/02/29 13:44:15;;;;;;;0.70;0.63;;;13.20;93.30;;;;;;4958388;28;20189;-60
2024/02/29 13:46:40;;;;;;;0.40;0.40;;;13.30;93.30;;;;;;4973940;28;20255;-57
2024/02/29 13:49:07;;;;;;;0.40;0.40;;;13.30;93.10;;;;;;4974439;28;20184;-54
2024/02/29 13:51:33;;;;;;;0.30;0.30;;;13.30;93.40;;;;;;4962262;28;20227;-58
2024/02/29 13:53:58;;;;;;;0.30;0.20;;;13.20;93.60;;;;;;4954858;29;20484;-58
2024/02/29 13:56:25;;;;;;;0.30;0.30;;;13.20;93.50;;;;;;4954161;28;20714;-61
2024/02/29 13:58:51;;;;;;;0.30;0.30;;;13.20;93.40;;;;;;4955002;28;20180;-61
2024/02/29 14:01:17;;;;;;;0.50;0.50;;;13.10;93.40;;;;;;4955413;28;20800;-61
2024/02/29 14:03:46;;;;;;;0.50;0.50;;;13.10;93.70;;;;;;4954838;28;20943;-63
2024/02/29 14:06:15;;;;;;;0.30;0.30;;;13.10;93.60;;;;;;4954408;28;20747;-61
2024/02/29 14:08:40;;;;;;;1.53;1.07;;;13.00;93.80;;;;;;4954797;28;20807;-61
2024/02/29 14:11:06;;;;;;;0.30;0.30;;;12.90;94.40;;;;;;4954744;28;20431;-60
2024/02/29 14:13:33;;;;;;;1.47;1.43;;;12.90;94.20;;;;;;4954419;28;20511;-62
2024/02/29 14:15:59;;;;;;;0.30;0.30;;;12.90;94.20;;;;;;4953900;28;20962;-61
2024/02/29 14:18:25;;;;;;;0.73;0.53;;;13.00;94.20;;;;;;4955597;28;20418;-61
2024/02/29 14:20:51;;;;;;;0.30;0.30;;;13.00;94.20;;;;;;4966632;28;20429;-62
2024/02/29 14:23:18;;;;;;;0.40;0.40;;;13.00;94.40;;;;;;4953261;29;20909;-61
2024/02/29 14:25:43;;;;;;;0.30;0.30;;;13.10;94.40;;;;;;4952545;28;20976;-61
2024/02/29 14:28:09;;;;;;;0.30;0.20;;;13.20;94.20;;;;;;4954368;28;20416;-61
2024/02/29 14:30:36;;;;;;;0.30;0.30;;;13.10;94.00;;;;;;4953705;28;20176;-62
2024/02/29 14:33:02;;;;;;;0.40;0.40;;;13.10;94.00;;;;;;4959476;28;20267;-61
2024/02/29 14:35:27;;;;;;;0.30;0.30;;;13.10;94.20;;;;;;4957902;28;20446;-60
2024/02/29 14:37:54;;;;;;;0.63;0.63;;;13.10;94.10;;;;;;4957924;28;20244;-60
2024/02/29 14:40:19;;;;;;;0.40;0.40;;;13.10;94.20;;;;;;4958486;28;20527;-59
2024/02/29 14:42:46;;;;;;;0.43;0.43;;;13.20;94.10;;;;;;4956976;28;20423;-59
2024/02/29 14:45:11;;;;;;;0.30;0.30;;;13.10;94.20;;;;;;4957654;28;20217;-59
2024/02/29 14:47:37;;;;;;;0.30;0.30;;;13.10;94.30;;;;;;4960585;28;20449;-59
2024/02/29 14:50:03;;;;;;;4.30;1.37;;;13.20;94.40;;;;;;4957006;29;20283;-59
2024/02/29 14:52:29;;;;;;;0.30;0.30;;;13.10;94.40;;;;;;4957417;29;20482;-61
2024/02/29 14:54:55;;;;;;;0.30;0.30;;;13.20;94.40;;;;;;4957418;29;20462;-61
2024/02/29 14:57:20;;;;;;;1.83;1.30;;;13.20;94.20;;;;;;4958010;29;20192;-61
2024/02/29 14:59:46;;;;;;;0.40;0.40;;;13.20;94.20;;;;;;4958052;29;20187;-61
2024/02/29 15:02:14;;;;;;;0.30;0.30;;;13.20;94.40;;;;;;4957877;29;20424;-61
2024/02/29 15:04:40;;;;;;;0.30;0.30;;;13.20;94.50;;;;;;4957320;29;20433;-62
2024/02/29 15:07:06;;;;;;;4.00;1.90;;;13.20;94.40;;;;;;4957468;28;20521;-62
2024/02/29 15:09:32;;;;;;;0.50;0.50;;;13.20;94.50;;;;;;4958035;29;20411;-62
2024/02/29 15:11:57;;;;;;;0.50;0.40;;;13.10;94.60;;;;;;4957476;29;20661;-63
2024/02/29 15:14:23;;;;;;;0.50;0.50;;;13.10;94.70;;;;;;4956726;29;20196;-62
2024/02/29 15:16:48;;;;;;;0.40;0.40;;;13.10;94.80;;;;;;4956789;29;20662;-61
2024/02/29 15:19:16;;;;;;;0.30;0.30;;;13.10;95.00;;;;;;4957657;29;20176;-62
2024/02/29 15:21:41;;;;;;;0.30;0.20;;;13.10;95.10;;;;;;4957557;29;20199;-62
2024/02/29 15:24:07;;;;;;;0.30;0.30;;;13.10;95.20;;;;;;4957162;29;20416;-62
2024/02/29 15:26:35;;;;;;;1.07;1.07;;;13.00;95.10;;;;;;4956796;29;20216;-62
2024/02/29 15:29:01;;;;;;;0.30;0.30;;;13.10;95.30;;;;;;4957538;29;20386;-62
2024/02/29 15:31:26;;;;;;;0.30;0.30;;;13.10;95.40;;;;;;4957298;29;20501;-62
2024/02/29 15:33:52;;;;;;;0.30;0.20;;;13.00;95.50;;;;;;4956773;29;20821;-62
2024/02/29 15:36:18;;;;;;;0.30;0.30;;;12.90;95.70;;;;;;4956372;28;20203;-62
2024/02/29 15:38:44;;;;;;;0.50;0.50;;;12.90;95.80;;;;;;4956988;29;20183;-62
2024/02/29 15:41:10;;;;;;;0.30;0.30;;;12.90;95.90;;;;;;4955795;29;20210;-62
2024/02/29 15:43:36;;;;;;;0.30;0.30;;;12.80;96.10;;;;;;4957191;28;20427;-61
2024/02/29 15:46:01;;;;;;;0.40;0.40;;;12.80;96.30;;;;;;4956236;29;20282;-60
2024/02/29 15:48:28;;;;;;;0.30;0.30;;;12.70;96.50;;;;;;4939584;29;20427;-61
2024/02/29 15:50:54;;;;;;;0.30;0.30;;;12.60;96.80;;;;;;4956059;29;20488;-61
2024/02/29 15:53:19;;;;;;;0.30;0.30;;;12.60;97.00;;;;;;4956531;29;20521;-61
2024/02/29 15:55:49;;;;;;;0.50;0.50;;;12.50;97.20;;;;;;4956039;28;20219;-62
2024/02/29 15:58:16;;;;;;;0.40;0.40;;;12.40;97.30;;;;;;4956435;29;20172;-61
2024/02/29 16:00:41;;;;;;;1.07;1.07;;;12.30;97.60;;;;;;4956290;29;20501;-63
2024/02/29 16:03:07;;;;;;;0.40;0.40;;;12.20;97.90;;;;;;4956420;29;20898;-63
2024/02/29 16:05:33;;;;;;;0.30;0.30;;;12.20;98.20;;;;;;4956297;28;20585;-62
2024/02/29 16:08:01;;;;;;;1.07;1.07;;;12.10;98.30;;;;;;4956339;29;20270;-62
2024/02/29 16:10:28;;;;;;;0.77;0.77;;;12.00;98.50;;;;;;4956509;29;20396;-62
2024/02/29 16:12:55;;;;;;;0.83;0.70;;;11.90;98.80;;;;;;4956430;28;20476;-61
2024/02/29 16:15:27;;;;;;;0.37;0.37;;;11.80;99.20;;;;;;4955823;28;20409;-61
2024/02/29 16:17:53;;;;;;;0.33;0.33;;;11.70;99.50;;;;;;4956330;29;20412;-61
2024/02/29 16:20:21;;;;;;;2.87;0.57;;;11.60;99.90;;;;;;4956154;29;20394;-60
2024/02/29 16:22:47;;;;;;;0.30;0.20;;;11.60;99.90;;;;;;4956034;29;20464;-61
2024/02/29 16:25:14;;;;;;;0.68;0.68;;;11.50;99.90;;;;;;4956102;28;20540;-60
2024/02/29 16:27:40;;;;;;;0.30;0.30;;;11.40;99.90;;;;;;4956123;29;20177;-60
2024/02/29 16:30:06;;;;;;;0.40;0.40;;;11.30;99.90;;;;;;4955976;29;20436;-61
2024/02/29 16:32:32;;;;;;;0.83;0.83;;;11.20;99.90;;;;;;4954647;29;20188;-62
2024/02/29 16:34:57;;;;;;;0.30;0.30;;;11.20;99.90;;;;;;4953772;29;20512;-61
2024/02/29 16:37:23;;;;;;;0.60;0.60;;;11.10;99.90;;;;;;4955094;28;20244;-62
2024/02/29 16:39:49;;;;;;;0.30;0.30;;;11.00;99.90;;;;;;4955625;28;20190;-62
2024/02/29 16:42:14;;;;;;;0.30;0.30;;;10.90;99.90;;;;;;4955622;29;20561;-63
2024/02/29 16:44:40;;;;;;;0.30;0.30;;;10.80;99.90;;;;;;4955043;29;20540;-64
2024/02/29 16:47:06;;;;;;;0.30;0.30;;;10.70;99.90;;;;;;4955888;28;20204;-64
2024/02/29 16:49:32;;;;;;;0.30;0.30;;;10.70;99.90;;;;;;4955490;29;20180;-63
2024/02/29 16:51:58;;;;;;;0.40;0.40;;;10.60;99.90;;;;;;4955337;29;20173;-63
2024/02/29 16:54:24;;;;;;;0.30;0.20;;;10.50;99.90;;;;;;4954629;28;20521;-65
2024/02/29 16:56:50;;;;;;;0.50;0.50;;;10.50;99.90;;;;;;4953347;28;20185;-62
2024/02/29 16:59:15;;;;;;;0.33;0.33;;;10.40;99.90;;;;;;4953446;29;20264;-62
2024/02/29 17:01:42;;;;;;;0.50;0.50;;;10.30;99.90;;;;;;4953445;29;20531;-64
2024/02/29 17:04:08;;;;;;;0.30;0.30;;;10.20;99.90;;;;;;4936098;29;20268;-63
2024/02/29 17:06:35;;;;;;;0.50;0.50;;;10.20;99.90;;;;;;4952920;28;20223;-64
2024/02/29 17:09:01;;;;;;;0.30;0.30;;;10.10;99.90;;;;;;4953705;29;20524;-66
2024/02/29 17:11:27;;;;;;;0.30;0.30;;;10.00;99.90;;;;;;4955052;29;20185;-63
2024/02/29 17:13:53;;;;;;;0.93;0.93;;;9.90;99.90;;;;;;4938521;29;20205;-65
2024/02/29 17:16:19;;;;;;;0.40;0.40;;;9.80;99.90;;;;;;4954412;28;20204;-63
2024/02/29 17:18:45;;;;;;;0.47;0.47;;;9.80;99.90;;;;;;4955210;29;20173;-62
2024/02/29 17:21:10;;;;;;;0.70;0.70;;;9.70;99.90;;;;;;4954799;29;20179;-64
2024/02/29 17:23:36;;;;;;;0.33;0.33;;;9.60;99.90;;;;;;4955003;29;20172;-65
2024/02/29 17:26:02;;;;;;;0.30;0.30;;;9.60;99.90;;;;;;4954685;28;20200;-63
2024/02/29 17:28:28;;;;;;;0.30;0.30;;;9.50;99.90;;;;;;4955194;29;20277;-64
2024/02/29 17:30:53;;;;;;;0.40;0.40;;;9.50;99.90;;;;;;4955417;29;20655;-64
2024/02/29 17:33:19;;;;;;;0.40;0.40;;;9.40;99.90;;;;;;4955209;29;20208;-64
2024/02/29 17:35:45;;;;;;;0.30;0.30;;;9.30;99.90;;;;;;4954612;28;20729;-61
2024/02/29 17:38:11;;;;;;;0.30;0.30;;;9.20;99.90;;;;;;4955095;29;20168;-64
2024/02/29 17:40:36;;;;;;;0.30;0.30;;;9.20;99.90;;;;;;4954761;29;20196;-63
2024/02/29 17:43:02;;;;;;;0.30;0.30;;;9.10;99.90;;;;;;4954928;29;20424;-66
2024/02/29 17:45:27;;;;;;;0.30;0.30;;;9.10;99.90;;;;;;4954319;28;20547;-65
2024/02/29 17:47:56;;;;;;;2.87;0.97;;;9.10;99.90;;;;;;4954716;29;20669;-62
2024/02/29 17:50:21;;;;;;;0.40;0.40;;;9.00;99.90;;;;;;4954870;29;20212;-63
2024/02/29 17:52:47;;;;;;;0.33;0.33;;;8.90;99.90;;;;;;4937533;29;20200;-62